sensor_id;sensor_type;location;lat;lon;timestamp;temperature;humidity
34815;DHT22;21030;53.912;15.214;2023-04-02T00:07:50;27.10;22.10
34815;DHT22;21030;53.912;15.214;2023-04-02T00:15:38;26.20;22.40
34815;DHT22;21030;53.912;15.214;2023-04-02T00:18:06;26.20;21.90
34815;DHT22;21030;53.912;15.214;2023-04-02T00:20:36;26.80;22.20
34815;DHT22;21030;53.912;15.214;2023-04-02T00:23:10;27.40;21.80
34815;DHT22;21030;53.912;15.214;2023-04-02T00:25:37;26.60;21.40
34815;DHT22;21030;53.912;15.214;2023-04-02T00:28:21;27.60;21.70
34815;DHT22;21030;53.912;15.214;2023-04-02T00:30:54;27.40;21.80
34815;DHT22;21030;53.912;15.214;2023-04-02T00:33:24;26.90;21.30
34815;DHT22;21030;53.912;15.214;2023-04-02T00:35:53;26.60;22.00
34815;DHT22;21030;53.912;15.214;2023-04-02T00:38:26;26.50;21.80
34815;DHT22;21030;53.912;15.214;2023-04-02T00:40:57;27.50;21.60
34815;DHT22;21030;53.912;15.214;2023-04-02T00:43:26;28.60;20.90
34815;DHT22;21030;53.912;15.214;2023-04-02T00:45:57;27.90;21.00
34815;DHT22;21030;53.912;15.214;2023-04-02T00:51:12;29.10;20.70
34815;DHT22;21030;53.912;15.214;2023-04-02T00:53:41;28.80;20.60
34815;DHT22;21030;53.912;15.214;2023-04-02T00:56:32;29.20;20.50
34815;DHT22;21030;53.912;15.214;2023-04-02T00:59:00;28.70;20.80
34815;DHT22;21030;53.912;15.214;2023-04-02T01:01:34;29.20;20.80
34815;DHT22;21030;53.912;15.214;2023-04-02T01:04:04;29.10;20.60
34815;DHT22;21030;53.912;15.214;2023-04-02T01:06:34;29.40;20.50
34815;DHT22;21030;53.912;15.214;2023-04-02T01:11:47;29.60;20.60
34815;DHT22;21030;53.912;15.214;2023-04-02T01:22:59;30.30;20.30
34815;DHT22;21030;53.912;15.214;2023-04-02T01:25:42;29.70;20.40
34815;DHT22;21030;53.912;15.214;2023-04-02T01:28:30;29.60;20.70
34815;DHT22;21030;53.912;15.214;2023-04-02T01:31:00;29.30;20.70
34815;DHT22;21030;53.912;15.214;2023-04-02T01:33:31;29.00;21.00
34815;DHT22;21030;53.912;15.214;2023-04-02T01:36:02;29.50;20.60
34815;DHT22;21030;53.912;15.214;2023-04-02T01:38:38;29.20;20.30
34815;DHT22;21030;53.912;15.214;2023-04-02T01:41:25;30.00;20.50
34815;DHT22;21030;53.912;15.214;2023-04-02T01:44:04;30.90;20.10
34815;DHT22;21030;53.912;15.214;2023-04-02T01:46:35;30.10;19.80
34815;DHT22;21030;53.912;15.214;2023-04-02T01:49:12;29.60;20.30
34815;DHT22;21030;53.912;15.214;2023-04-02T01:51:45;29.70;20.30
34815;DHT22;21030;53.912;15.214;2023-04-02T01:54:15;30.00;20.30
34815;DHT22;21030;53.912;15.214;2023-04-02T01:56:43;28.20;20.20
34815;DHT22;21030;53.912;15.214;2023-04-02T01:59:11;28.60;20.90
34815;DHT22;21030;53.912;15.214;2023-04-02T02:04:30;28.90;21.10
34815;DHT22;21030;53.912;15.214;2023-04-02T02:06:59;29.80;20.20
34815;DHT22;21030;53.912;15.214;2023-04-02T02:09:32;29.60;20.30
34815;DHT22;21030;53.912;15.214;2023-04-02T02:12:01;30.30;20.20
34815;DHT22;21030;53.912;15.214;2023-04-02T02:14:30;29.60;19.70
34815;DHT22;21030;53.912;15.214;2023-04-02T02:16:59;30.50;20.10
34815;DHT22;21030;53.912;15.214;2023-04-02T02:19:33;30.60;19.80
34815;DHT22;21030;53.912;15.214;2023-04-02T02:24:44;29.90;19.80
34815;DHT22;21030;53.912;15.214;2023-04-02T02:29:54;29.90;20.00
34815;DHT22;21030;53.912;15.214;2023-04-02T02:32:26;29.00;20.10
34815;DHT22;21030;53.912;15.214;2023-04-02T02:41:00;29.10;20.90
34815;DHT22;21030;53.912;15.214;2023-04-02T02:43:28;28.70;20.70
34815;DHT22;21030;53.912;15.214;2023-04-02T02:45:56;28.20;20.90
34815;DHT22;21030;53.912;15.214;2023-04-02T02:48:31;28.10;21.10
34815;DHT22;21030;53.912;15.214;2023-04-02T02:51:03;27.70;20.80
34815;DHT22;21030;53.912;15.214;2023-04-02T02:53:45;27.40;21.50
34815;DHT22;21030;53.912;15.214;2023-04-02T02:56:14;29.00;21.00
34815;DHT22;21030;53.912;15.214;2023-04-02T02:58:41;29.10;20.30
34815;DHT22;21030;53.912;15.214;2023-04-02T03:01:09;29.20;20.50
34815;DHT22;21030;53.912;15.214;2023-04-02T03:03:37;29.10;20.50
34815;DHT22;21030;53.912;15.214;2023-04-02T03:06:08;28.40;20.70
34815;DHT22;21030;53.912;15.214;2023-04-02T03:08:41;28.40;20.90
34815;DHT22;21030;53.912;15.214;2023-04-02T03:11:17;27.90;21.10
34815;DHT22;21030;53.912;15.214;2023-04-02T03:13:48;27.60;21.30
34815;DHT22;21030;53.912;15.214;2023-04-02T03:16:20;28.00;21.30
34815;DHT22;21030;53.912;15.214;2023-04-02T03:18:54;28.70;20.70
34815;DHT22;21030;53.912;15.214;2023-04-02T03:21:27;28.80;20.80
34815;DHT22;21030;53.912;15.214;2023-04-02T03:29:40;28.60;20.80
34815;DHT22;21030;53.912;15.214;2023-04-02T03:32:20;28.20;20.60
34815;DHT22;21030;53.912;15.214;2023-04-02T03:37:23;27.10;20.90
34815;DHT22;21030;53.912;15.214;2023-04-02T03:42:24;28.30;21.00
34815;DHT22;21030;53.912;15.214;2023-04-02T03:45:40;28.70;20.60
34815;DHT22;21030;53.912;15.214;2023-04-02T03:47:51;28.70;20.40
34815;DHT22;21030;53.912;15.214;2023-04-02T03:50:29;28.10;20.50
34815;DHT22;21030;53.912;15.214;2023-04-02T03:52:58;27.90;20.70
34815;DHT22;21030;53.912;15.214;2023-04-02T03:55:28;27.30;20.90
34815;DHT22;21030;53.912;15.214;2023-04-02T04:03:41;28.00;20.50
34815;DHT22;21030;53.912;15.214;2023-04-02T04:06:18;27.70;20.50
34815;DHT22;21030;53.912;15.214;2023-04-02T04:08:53;28.40;20.50
34815;DHT22;21030;53.912;15.214;2023-04-02T04:11:25;28.40;19.80
34815;DHT22;21030;53.912;15.214;2023-04-02T04:16:41;27.80;20.10
34815;DHT22;21030;53.912;15.214;2023-04-02T04:22:10;28.40;20.30
34815;DHT22;21030;53.912;15.214;2023-04-02T04:24:40;29.10;19.70
34815;DHT22;21030;53.912;15.214;2023-04-02T04:27:25;29.30;19.80
34815;DHT22;21030;53.912;15.214;2023-04-02T04:30:06;29.00;19.70
34815;DHT22;21030;53.912;15.214;2023-04-02T04:32:47;28.90;20.00
34815;DHT22;21030;53.912;15.214;2023-04-02T04:35:36;28.70;19.90
34815;DHT22;21030;53.912;15.214;2023-04-02T04:38:12;28.10;20.10
34815;DHT22;21030;53.912;15.214;2023-04-02T04:41:20;27.40;20.20
34815;DHT22;21030;53.912;15.214;2023-04-02T04:44:00;27.50;20.40
34815;DHT22;21030;53.912;15.214;2023-04-02T04:46:40;27.20;20.40
34815;DHT22;21030;53.912;15.214;2023-04-02T04:49:16;27.80;20.50
34815;DHT22;21030;53.912;15.214;2023-04-02T04:51:52;27.40;20.40
34815;DHT22;21030;53.912;15.214;2023-04-02T04:54:25;26.20;20.60
34815;DHT22;21030;53.912;15.214;2023-04-02T04:57:01;26.90;21.20
34815;DHT22;21030;53.912;15.214;2023-04-02T04:59:38;27.30;20.90
34815;DHT22;21030;53.912;15.214;2023-04-02T05:02:16;27.70;20.30
34815;DHT22;21030;53.912;15.214;2023-04-02T05:04:50;26.60;20.30
34815;DHT22;21030;53.912;15.214;2023-04-02T05:07:24;27.10;20.60
34815;DHT22;21030;53.912;15.214;2023-04-02T05:12:43;26.30;20.60
34815;DHT22;21030;53.912;15.214;2023-04-02T05:20:59;27.50;20.30
34815;DHT22;21030;53.912;15.214;2023-04-02T05:23:34;27.90;19.90
34815;DHT22;21030;53.912;15.214;2023-04-02T05:26:24;28.40;19.60
34815;DHT22;21030;53.912;15.214;2023-04-02T05:29:08;28.20;19.80
34815;DHT22;21030;53.912;15.214;2023-04-02T05:31:52;28.00;20.00
34815;DHT22;21030;53.912;15.214;2023-04-02T05:34:24;27.90;20.40
34815;DHT22;21030;53.912;15.214;2023-04-02T05:36:53;27.30;20.80
34815;DHT22;21030;53.912;15.214;2023-04-02T05:39:23;26.20;21.30
34815;DHT22;21030;53.912;15.214;2023-04-02T05:42:04;27.80;21.10
34815;DHT22;21030;53.912;15.214;2023-04-02T05:44:37;27.40;20.30
34815;DHT22;21030;53.912;15.214;2023-04-02T05:47:18;26.90;20.60
34815;DHT22;21030;53.912;15.214;2023-04-02T05:52:40;28.00;20.50
34815;DHT22;21030;53.912;15.214;2023-04-02T05:57:42;28.10;20.40
34815;DHT22;21030;53.912;15.214;2023-04-02T06:03:36;27.40;21.00
34815;DHT22;21030;53.912;15.214;2023-04-02T06:06:18;27.20;21.80
34815;DHT22;21030;53.912;15.214;2023-04-02T06:08:58;27.20;21.30
34815;DHT22;21030;53.912;15.214;2023-04-02T06:11:39;27.20;21.70
34815;DHT22;21030;53.912;15.214;2023-04-02T06:14:11;27.90;21.30
34815;DHT22;21030;53.912;15.214;2023-04-02T06:16:39;27.30;21.30
34815;DHT22;21030;53.912;15.214;2023-04-02T06:19:14;27.80;21.10
34815;DHT22;21030;53.912;15.214;2023-04-02T06:21:46;28.20;21.20
34815;DHT22;21030;53.912;15.214;2023-04-02T06:24:19;28.60;21.20
34815;DHT22;21030;53.912;15.214;2023-04-02T06:26:56;27.50;20.30
34815;DHT22;21030;53.912;15.214;2023-04-02T06:29:38;27.70;21.00
34815;DHT22;21030;53.912;15.214;2023-04-02T06:32:08;28.00;20.90
34815;DHT22;21030;53.912;15.214;2023-04-02T06:34:38;27.20;20.70
34815;DHT22;21030;53.912;15.214;2023-04-02T06:37:26;27.50;20.60
34815;DHT22;21030;53.912;15.214;2023-04-02T06:39:58;27.70;20.50
34815;DHT22;21030;53.912;15.214;2023-04-02T06:42:30;26.90;20.40
34815;DHT22;21030;53.912;15.214;2023-04-02T06:44:59;27.60;20.60
34815;DHT22;21030;53.912;15.214;2023-04-02T06:47:36;27.40;20.80
34815;DHT22;21030;53.912;15.214;2023-04-02T06:50:20;27.00;21.60
34815;DHT22;21030;53.912;15.214;2023-04-02T06:52:49;26.40;21.30
34815;DHT22;21030;53.912;15.214;2023-04-02T06:58:00;28.60;20.80
34815;DHT22;21030;53.912;15.214;2023-04-02T07:00:37;28.90;20.30
34815;DHT22;21030;53.912;15.214;2023-04-02T07:03:07;27.60;20.60
34815;DHT22;21030;53.912;15.214;2023-04-02T07:05:39;27.00;20.90
34815;DHT22;21030;53.912;15.214;2023-04-02T07:08:08;27.40;21.10
34815;DHT22;21030;53.912;15.214;2023-04-02T07:10:35;28.40;20.80
34815;DHT22;21030;53.912;15.214;2023-04-02T07:13:02;29.30;20.10
34815;DHT22;21030;53.912;15.214;2023-04-02T07:15:31;29.30;19.90
34815;DHT22;21030;53.912;15.214;2023-04-02T07:17:58;29.10;20.60
34815;DHT22;21030;53.912;15.214;2023-04-02T07:20:34;29.80;19.70
34815;DHT22;21030;53.912;15.214;2023-04-02T07:23:04;29.90;19.30
34815;DHT22;21030;53.912;15.214;2023-04-02T07:25:31;27.50;19.80
34815;DHT22;21030;53.912;15.214;2023-04-02T07:27:58;27.50;20.50
34815;DHT22;21030;53.912;15.214;2023-04-02T07:30:27;27.00;20.80
34815;DHT22;21030;53.912;15.214;2023-04-02T07:32:54;26.50;20.90
34815;DHT22;21030;53.912;15.214;2023-04-02T07:35:21;27.10;21.30
34815;DHT22;21030;53.912;15.214;2023-04-02T07:37:49;27.70;21.10
34815;DHT22;21030;53.912;15.214;2023-04-02T07:40:19;28.50;20.70
34815;DHT22;21030;53.912;15.214;2023-04-02T07:42:49;27.90;20.90
34815;DHT22;21030;53.912;15.214;2023-04-02T07:45:16;28.00;20.30
34815;DHT22;21030;53.912;15.214;2023-04-02T07:47:43;27.70;20.30
34815;DHT22;21030;53.912;15.214;2023-04-02T07:50:10;28.80;20.40
34815;DHT22;21030;53.912;15.214;2023-04-02T07:52:42;29.10;20.30
34815;DHT22;21030;53.912;15.214;2023-04-02T07:55:11;28.30;20.00
34815;DHT22;21030;53.912;15.214;2023-04-02T07:57:53;28.20;20.50
34815;DHT22;21030;53.912;15.214;2023-04-02T08:00:20;28.80;20.50
34815;DHT22;21030;53.912;15.214;2023-04-02T08:02:53;28.80;20.10
34815;DHT22;21030;53.912;15.214;2023-04-02T08:05:21;28.60;20.20
34815;DHT22;21030;53.912;15.214;2023-04-02T08:07:53;29.20;19.60
34815;DHT22;21030;53.912;15.214;2023-04-02T08:10:21;30.50;19.80
34815;DHT22;21030;53.912;15.214;2023-04-02T08:12:49;31.00;18.70
34815;DHT22;21030;53.912;15.214;2023-04-02T08:15:16;29.40;18.10
34815;DHT22;21030;53.912;15.214;2023-04-02T08:17:44;28.70;19.30
34815;DHT22;21030;53.912;15.214;2023-04-02T08:20:20;28.80;19.50
34815;DHT22;21030;53.912;15.214;2023-04-02T08:22:48;28.10;19.30
34815;DHT22;21030;53.912;15.214;2023-04-02T08:25:16;29.20;19.50
34815;DHT22;21030;53.912;15.214;2023-04-02T08:27:46;28.90;19.00
34815;DHT22;21030;53.912;15.214;2023-04-02T08:30:14;28.70;19.40
34815;DHT22;21030;53.912;15.214;2023-04-02T08:32:42;28.30;19.80
34815;DHT22;21030;53.912;15.214;2023-04-02T08:35:12;28.10;19.50
34815;DHT22;21030;53.912;15.214;2023-04-02T08:37:40;27.10;19.80
34815;DHT22;21030;53.912;15.214;2023-04-02T08:40:34;26.60;20.50
34815;DHT22;21030;53.912;15.214;2023-04-02T08:43:35;26.90;20.70
34815;DHT22;21030;53.912;15.214;2023-04-02T08:46:25;29.00;20.50
34815;DHT22;21030;53.912;15.214;2023-04-02T08:49:00;28.40;20.20
34815;DHT22;21030;53.912;15.214;2023-04-02T08:51:31;28.90;20.00
34815;DHT22;21030;53.912;15.214;2023-04-02T08:54:05;28.30;19.90
34815;DHT22;21030;53.912;15.214;2023-04-02T08:56:54;28.00;20.40
34815;DHT22;21030;53.912;15.214;2023-04-02T08:59:35;27.50;20.90
34815;DHT22;21030;53.912;15.214;2023-04-02T09:04:33;28.00;20.50
34815;DHT22;21030;53.912;15.214;2023-04-02T09:07:02;28.40;20.60
34815;DHT22;21030;53.912;15.214;2023-04-02T09:09:33;29.20;19.90
34815;DHT22;21030;53.912;15.214;2023-04-02T09:12:03;29.50;19.40
34815;DHT22;21030;53.912;15.214;2023-04-02T09:17:02;29.00;19.90
34815;DHT22;21030;53.912;15.214;2023-04-02T09:19:40;28.70;19.60
34815;DHT22;21030;53.912;15.214;2023-04-02T09:22:20;28.70;19.80
34815;DHT22;21030;53.912;15.214;2023-04-02T09:24:55;29.20;19.70
34815;DHT22;21030;53.912;15.214;2023-04-02T09:27:28;29.20;19.60
34815;DHT22;21030;53.912;15.214;2023-04-02T09:32:51;29.80;19.30
34815;DHT22;21030;53.912;15.214;2023-04-02T09:35:21;28.80;19.40
34815;DHT22;21030;53.912;15.214;2023-04-02T09:43:33;29.30;19.60
34815;DHT22;21030;53.912;15.214;2023-04-02T09:48:39;28.00;20.10
34815;DHT22;21030;53.912;15.214;2023-04-02T09:51:15;27.70;19.70
34815;DHT22;21030;53.912;15.214;2023-04-02T09:53:49;28.20;19.60
34815;DHT22;21030;53.912;15.214;2023-04-02T09:56:23;27.30;19.50
34815;DHT22;21030;53.912;15.214;2023-04-02T09:59:13;28.90;19.60
34815;DHT22;21030;53.912;15.214;2023-04-02T10:04:40;28.10;19.50
34815;DHT22;21030;53.912;15.214;2023-04-02T10:10:36;29.30;19.20
34815;DHT22;21030;53.912;15.214;2023-04-02T10:16:06;28.00;19.70
34815;DHT22;21030;53.912;15.214;2023-04-02T10:18:56;28.30;19.70
34815;DHT22;21030;53.912;15.214;2023-04-02T10:21:35;28.10;19.60
34815;DHT22;21030;53.912;15.214;2023-04-02T10:24:11;28.20;19.60
34815;DHT22;21030;53.912;15.214;2023-04-02T10:32:13;28.20;19.70
34815;DHT22;21030;53.912;15.214;2023-04-02T10:34:56;29.10;19.60
34815;DHT22;21030;53.912;15.214;2023-04-02T10:40:38;28.10;19.40
34815;DHT22;21030;53.912;15.214;2023-04-02T10:48:32;28.30;19.30
34815;DHT22;21030;53.912;15.214;2023-04-02T10:56:24;27.40;19.80
34815;DHT22;21030;53.912;15.214;2023-04-02T10:59:18;27.10;20.50
34815;DHT22;21030;53.912;15.214;2023-04-02T11:01:49;27.80;19.80
34815;DHT22;21030;53.912;15.214;2023-04-02T11:04:22;29.20;20.20
34815;DHT22;21030;53.912;15.214;2023-04-02T11:07:06;28.50;19.20
34815;DHT22;21030;53.912;15.214;2023-04-02T11:09:42;28.20;19.80
34815;DHT22;21030;53.912;15.214;2023-04-02T11:12:19;29.20;19.70
34815;DHT22;21030;53.912;15.214;2023-04-02T11:14:49;29.20;19.40
34815;DHT22;21030;53.912;15.214;2023-04-02T11:17:18;29.60;19.00
34815;DHT22;21030;53.912;15.214;2023-04-02T11:19:46;28.80;19.40
34815;DHT22;21030;53.912;15.214;2023-04-02T11:22:23;29.60;20.30
34815;DHT22;21030;53.912;15.214;2023-04-02T11:24:52;29.80;20.30
34815;DHT22;21030;53.912;15.214;2023-04-02T11:27:27;29.80;19.70
34815;DHT22;21030;53.912;15.214;2023-04-02T11:32:45;29.50;19.20
34815;DHT22;21030;53.912;15.214;2023-04-02T11:38:00;28.80;19.60
34815;DHT22;21030;53.912;15.214;2023-04-02T11:40:56;28.30;20.20
34815;DHT22;21030;53.912;15.214;2023-04-02T11:48:42;28.50;20.70
34815;DHT22;21030;53.912;15.214;2023-04-02T11:53:58;27.30;19.20
34815;DHT22;21030;53.912;15.214;2023-04-02T11:59:22;29.00;20.10
34815;DHT22;21030;53.912;15.214;2023-04-02T12:02:13;29.90;19.50
34815;DHT22;21030;53.912;15.214;2023-04-02T12:11:00;28.50;19.80
34815;DHT22;21030;53.912;15.214;2023-04-02T12:16:09;30.00;18.10
34815;DHT22;21030;53.912;15.214;2023-04-02T12:18:48;30.40;17.60
34815;DHT22;21030;53.912;15.214;2023-04-02T12:21:25;30.70;17.60
34815;DHT22;21030;53.912;15.214;2023-04-02T12:23:55;30.60;17.90
34815;DHT22;21030;53.912;15.214;2023-04-02T12:26:30;30.10;18.00
34815;DHT22;21030;53.912;15.214;2023-04-02T12:29:23;30.90;18.10
34815;DHT22;21030;53.912;15.214;2023-04-02T12:31:56;30.30;17.70
34815;DHT22;21030;53.912;15.214;2023-04-02T12:34:28;29.90;18.00
34815;DHT22;21030;53.912;15.214;2023-04-02T12:37:01;30.20;18.10
34815;DHT22;21030;53.912;15.214;2023-04-02T12:39:33;28.60;17.70
34815;DHT22;21030;53.912;15.214;2023-04-02T12:42:00;29.80;18.70
34815;DHT22;21030;53.912;15.214;2023-04-02T12:44:29;30.50;18.20
34815;DHT22;21030;53.912;15.214;2023-04-02T12:46:57;31.00;17.80
34815;DHT22;21030;53.912;15.214;2023-04-02T12:49:30;32.20;17.80
34815;DHT22;21030;53.912;15.214;2023-04-02T12:52:05;32.20;16.90
34815;DHT22;21030;53.912;15.214;2023-04-02T12:54:37;31.90;17.10
34815;DHT22;21030;53.912;15.214;2023-04-02T12:59:50;31.30;17.10
34815;DHT22;21030;53.912;15.214;2023-04-02T13:03:06;30.60;17.00
34815;DHT22;21030;53.912;15.214;2023-04-02T13:05:11;30.90;17.50
34815;DHT22;21030;53.912;15.214;2023-04-02T13:07:38;31.60;17.50
34815;DHT22;21030;53.912;15.214;2023-04-02T13:10:24;30.80;17.00
34815;DHT22;21030;53.912;15.214;2023-04-02T13:12:57;31.00;17.60
34815;DHT22;21030;53.912;15.214;2023-04-02T13:15:30;30.90;17.50
34815;DHT22;21030;53.912;15.214;2023-04-02T13:20:35;30.70;17.90
34815;DHT22;21030;53.912;15.214;2023-04-02T13:28:24;29.60;18.10
34815;DHT22;21030;53.912;15.214;2023-04-02T13:30:53;30.60;18.50
34815;DHT22;21030;53.912;15.214;2023-04-02T13:33:21;30.70;17.50
34815;DHT22;21030;53.912;15.214;2023-04-02T13:35:48;31.90;17.50
34815;DHT22;21030;53.912;15.214;2023-04-02T13:38:16;30.70;17.40
34815;DHT22;21030;53.912;15.214;2023-04-02T13:40:43;30.90;17.60
34815;DHT22;21030;53.912;15.214;2023-04-02T13:43:17;30.50;17.50
34815;DHT22;21030;53.912;15.214;2023-04-02T13:45:48;30.70;17.70
34815;DHT22;21030;53.912;15.214;2023-04-02T13:48:17;30.40;17.50
34815;DHT22;21030;53.912;15.214;2023-04-02T13:50:45;31.70;17.70
34815;DHT22;21030;53.912;15.214;2023-04-02T13:53:24;32.00;17.20
34815;DHT22;21030;53.912;15.214;2023-04-02T13:55:53;31.60;17.10
34815;DHT22;21030;53.912;15.214;2023-04-02T13:58:21;32.30;17.30
34815;DHT22;21030;53.912;15.214;2023-04-02T14:00:48;33.50;16.80
34815;DHT22;21030;53.912;15.214;2023-04-02T14:03:21;31.80;16.40
34815;DHT22;21030;53.912;15.214;2023-04-02T14:09:04;30.80;17.40
34815;DHT22;21030;53.912;15.214;2023-04-02T14:17:55;30.00;17.60
34815;DHT22;21030;53.912;15.214;2023-04-02T14:23:22;29.80;17.70
34815;DHT22;21030;53.912;15.214;2023-04-02T14:29:04;30.00;17.00
34815;DHT22;21030;53.912;15.214;2023-04-02T14:37:20;29.20;18.20
34815;DHT22;21030;53.912;15.214;2023-04-02T14:42:43;29.30;18.60
34815;DHT22;21030;53.912;15.214;2023-04-02T14:54:29;28.70;18.80
34815;DHT22;21030;53.912;15.214;2023-04-02T15:02:45;28.40;18.90
34815;DHT22;21030;53.912;15.214;2023-04-02T15:08:04;29.10;18.00
34815;DHT22;21030;53.912;15.214;2023-04-02T15:13:16;28.70;18.60
34815;DHT22;21030;53.912;15.214;2023-04-02T15:15:49;28.60;18.70
34815;DHT22;21030;53.912;15.214;2023-04-02T15:18:18;28.80;18.30
34815;DHT22;21030;53.912;15.214;2023-04-02T15:23:37;27.30;18.90
34815;DHT22;21030;53.912;15.214;2023-04-02T15:28:56;26.90;19.30
34815;DHT22;21030;53.912;15.214;2023-04-02T15:31:26;26.00;20.10
34815;DHT22;21030;53.912;15.214;2023-04-02T15:34:05;25.70;20.40
34815;DHT22;21030;53.912;15.214;2023-04-02T15:42:21;25.60;20.70
34815;DHT22;21030;53.912;15.214;2023-04-02T15:45:12;26.60;20.70
34815;DHT22;21030;53.912;15.214;2023-04-02T15:47:56;25.90;20.50
34815;DHT22;21030;53.912;15.214;2023-04-02T15:53:34;27.20;20.00
34815;DHT22;21030;53.912;15.214;2023-04-02T15:59:33;27.40;20.00
34815;DHT22;21030;53.912;15.214;2023-04-02T16:10:38;25.20;21.20
34815;DHT22;21030;53.912;15.214;2023-04-02T16:16:06;24.00;21.40
34815;DHT22;21030;53.912;15.214;2023-04-02T16:18:59;24.60;21.90
34815;DHT22;21030;53.912;15.214;2023-04-02T16:22:20;23.70;21.70
34815;DHT22;21030;53.912;15.214;2023-04-02T16:24:20;24.30;22.00
34815;DHT22;21030;53.912;15.214;2023-04-02T16:27:16;24.40;21.80
34815;DHT22;21030;53.912;15.214;2023-04-02T16:29:50;24.80;21.70
34815;DHT22;21030;53.912;15.214;2023-04-02T16:35:21;25.50;21.10
34815;DHT22;21030;53.912;15.214;2023-04-02T16:38:19;25.10;20.60
34815;DHT22;21030;53.912;15.214;2023-04-02T16:41:12;25.90;20.90
34815;DHT22;21030;53.912;15.214;2023-04-02T16:48:04;25.30;20.90
34815;DHT22;21030;53.912;15.214;2023-04-02T16:59:30;26.60;20.40
34815;DHT22;21030;53.912;15.214;2023-04-02T17:05:06;27.20;20.30
34815;DHT22;21030;53.912;15.214;2023-04-02T17:10:59;26.60;19.80
34815;DHT22;21030;53.912;15.214;2023-04-02T17:18:48;25.90;20.90
34815;DHT22;21030;53.912;15.214;2023-04-02T17:21:23;25.90;20.70
34815;DHT22;21030;53.912;15.214;2023-04-02T17:24:03;26.00;20.60
34815;DHT22;21030;53.912;15.214;2023-04-02T17:26:34;26.30;20.20
34815;DHT22;21030;53.912;15.214;2023-04-02T17:29:08;26.50;20.30
34815;DHT22;21030;53.912;15.214;2023-04-02T17:31:39;26.10;20.30
34815;DHT22;21030;53.912;15.214;2023-04-02T17:34:18;26.20;20.70
34815;DHT22;21030;53.912;15.214;2023-04-02T17:46:22;25.60;20.90
34815;DHT22;21030;53.912;15.214;2023-04-02T18:03:52;27.10;20.00
34815;DHT22;21030;53.912;15.214;2023-04-02T18:07:01;27.00;20.00
34815;DHT22;21030;53.912;15.214;2023-04-02T18:09:49;27.30;19.70
34815;DHT22;21030;53.912;15.214;2023-04-02T18:12:32;26.90;20.00
34815;DHT22;21030;53.912;15.214;2023-04-02T18:15:36;26.40;20.30
34815;DHT22;21030;53.912;15.214;2023-04-02T18:18:18;27.00;20.30
34815;DHT22;21030;53.912;15.214;2023-04-02T18:21:23;27.40;20.00
34815;DHT22;21030;53.912;15.214;2023-04-02T18:43:01;28.20;19.20
34815;DHT22;21030;53.912;15.214;2023-04-02T18:48:45;26.90;19.70
34815;DHT22;21030;53.912;15.214;2023-04-02T18:51:23;27.50;19.20
34815;DHT22;21030;53.912;15.214;2023-04-02T18:56:45;27.10;19.30
34815;DHT22;21030;53.912;15.214;2023-04-02T18:59:37;27.00;19.30
34815;DHT22;21030;53.912;15.214;2023-04-02T19:02:49;27.20;19.30
34815;DHT22;21030;53.912;15.214;2023-04-02T19:05:29;28.30;18.80
34815;DHT22;21030;53.912;15.214;2023-04-02T19:11:10;27.10;19.00
34815;DHT22;21030;53.912;15.214;2023-04-02T19:13:39;26.70;19.30
34815;DHT22;21030;53.912;15.214;2023-04-02T19:19:03;27.70;18.90
34815;DHT22;21030;53.912;15.214;2023-04-02T19:27:30;28.50;18.40
34815;DHT22;21030;53.912;15.214;2023-04-02T19:42:59;28.90;18.30
34815;DHT22;21030;53.912;15.214;2023-04-02T19:45:02;28.70;18.20
34815;DHT22;21030;53.912;15.214;2023-04-02T19:47:30;28.70;18.30
34815;DHT22;21030;53.912;15.214;2023-04-02T19:49:57;28.90;18.30
34815;DHT22;21030;53.912;15.214;2023-04-02T19:52:24;29.00;18.20
34815;DHT22;21030;53.912;15.214;2023-04-02T19:54:51;28.20;18.30
34815;DHT22;21030;53.912;15.214;2023-04-02T19:57:19;28.60;18.20
34815;DHT22;21030;53.912;15.214;2023-04-02T19:59:47;28.50;18.30
34815;DHT22;21030;53.912;15.214;2023-04-02T20:02:16;28.40;18.50
34815;DHT22;21030;53.912;15.214;2023-04-02T20:04:43;28.40;18.20
34815;DHT22;21030;53.912;15.214;2023-04-02T20:07:10;28.50;18.40
34815;DHT22;21030;53.912;15.214;2023-04-02T20:09:37;28.90;18.40
34815;DHT22;21030;53.912;15.214;2023-04-02T20:12:04;28.50;18.30
34815;DHT22;21030;53.912;15.214;2023-04-02T20:14:31;28.70;18.20
34815;DHT22;21030;53.912;15.214;2023-04-02T20:16:58;29.10;18.20
34815;DHT22;21030;53.912;15.214;2023-04-02T20:19:25;28.80;18.20
34815;DHT22;21030;53.912;15.214;2023-04-02T20:21:53;28.60;18.40
34815;DHT22;21030;53.912;15.214;2023-04-02T20:24:20;28.70;18.50
34815;DHT22;21030;53.912;15.214;2023-04-02T20:26:47;28.80;18.40
34815;DHT22;21030;53.912;15.214;2023-04-02T20:29:14;28.60;18.40
34815;DHT22;21030;53.912;15.214;2023-04-02T20:31:41;28.60;18.40
34815;DHT22;21030;53.912;15.214;2023-04-02T20:34:09;28.90;18.40
34815;DHT22;21030;53.912;15.214;2023-04-02T20:36:36;28.60;18.50
34815;DHT22;21030;53.912;15.214;2023-04-02T20:39:03;29.00;18.40
34815;DHT22;21030;53.912;15.214;2023-04-02T20:41:33;28.90;18.20
34815;DHT22;21030;53.912;15.214;2023-04-02T20:44:00;29.00;18.30
34815;DHT22;21030;53.912;15.214;2023-04-02T20:46:27;29.30;18.20
34815;DHT22;21030;53.912;15.214;2023-04-02T20:48:55;29.00;18.30
34815;DHT22;21030;53.912;15.214;2023-04-02T20:51:22;28.70;18.60
34815;DHT22;21030;53.912;15.214;2023-04-02T20:53:49;28.80;18.50
34815;DHT22;21030;53.912;15.214;2023-04-02T20:56:17;28.90;18.40
34815;DHT22;21030;53.912;15.214;2023-04-02T20:58:45;29.00;18.40
34815;DHT22;21030;53.912;15.214;2023-04-02T21:01:27;28.90;18.50
34815;DHT22;21030;53.912;15.214;2023-04-02T21:03:57;29.10;18.40
34815;DHT22;21030;53.912;15.214;2023-04-02T21:06:29;28.90;18.50
34815;DHT22;21030;53.912;15.214;2023-04-02T21:08:57;28.80;18.30
34815;DHT22;21030;53.912;15.214;2023-04-02T21:11:24;28.70;18.50
34815;DHT22;21030;53.912;15.214;2023-04-02T21:13:53;28.40;18.60
34815;DHT22;21030;53.912;15.214;2023-04-02T21:16:28;28.80;18.40
34815;DHT22;21030;53.912;15.214;2023-04-02T21:18:57;28.70;18.40
34815;DHT22;21030;53.912;15.214;2023-04-02T21:21:26;28.50;18.40
34815;DHT22;21030;53.912;15.214;2023-04-02T21:23:55;28.30;18.60
34815;DHT22;21030;53.912;15.214;2023-04-02T21:26:23;28.60;19.10
34815;DHT22;21030;53.912;15.214;2023-04-02T21:28:52;28.40;18.50
34815;DHT22;21030;53.912;15.214;2023-04-02T21:31:25;28.70;18.40
34815;DHT22;21030;53.912;15.214;2023-04-02T21:33:54;29.00;18.10